Keldonk, Netherlands
Current Conditions -  °F | °C
As of 8:25 PM on Saturday 25 Oct 2014 (Local Time) from EHVK Reporting Station
Overcast Overcast  
Wind Chill: 50°   Ceiling: 3900
Heat Index: 50°   Visibility: 6mi
Dew Point: 48°   Wind: 5mph
Humidity: 94%   Direction: 210°SSW
Pressure: 30.15"   Gusts: NA
Location:  51.59°N, 5.58°E
Report Text: EHVK 251825Z AUTO 21004KT 9999 OVC039 10/09 Q1021 BLU
Loading
Personal Weather Stations






























Interactive Weather Map
Tropical Storm Tracking
New forecast layout! Learn more

10-Day Weather Forecast

Advertisements
Track Severe Weather on mobile